sensor_id;sensor_type;location;lat;lon;timestamp;pressure;altitude;pressure_sealevel;temperature;humidity
62712;BME280;48772;55.586;37.730;2023-03-26T00:00:44;97998.88;;;7.79;100.00
62712;BME280;48772;55.586;37.730;2023-03-26T00:03:10;98003.88;;;7.82;100.00
62712;BME280;48772;55.586;37.730;2023-03-26T00:05:39;98009.47;;;7.79;100.00
62712;BME280;48772;55.586;37.730;2023-03-26T00:08:06;98006.28;;;7.76;100.00
62712;BME280;48772;55.586;37.730;2023-03-26T00:10:38;98009.09;;;7.74;100.00
62712;BME280;48772;55.586;37.730;2023-03-26T00:13:05;98009.94;;;7.75;100.00
62712;BME280;48772;55.586;37.730;2023-03-26T00:15:32;98001.00;;;7.76;100.00
62712;BME280;48772;55.586;37.730;2023-03-26T00:17:58;98007.13;;;7.76;100.00
62712;BME280;48772;55.586;37.730;2023-03-26T00:20:26;97971.19;;;7.55;100.00
62712;BME280;48772;55.586;37.730;2023-03-26T00:22:53;98002.13;;;7.73;100.00
62712;BME280;48772;55.586;37.730;2023-03-26T00:25:20;97997.38;;;7.67;100.00
62712;BME280;48772;55.586;37.730;2023-03-26T00:27:46;98003.41;;;7.69;100.00
62712;BME280;48772;55.586;37.730;2023-03-26T00:30:14;97995.16;;;7.63;100.00
62712;BME280;48772;55.586;37.730;2023-03-26T00:32:42;97993.78;;;7.59;100.00
62712;BME280;48772;55.586;37.730;2023-03-26T00:35:08;97997.41;;;7.58;100.00
62712;BME280;48772;55.586;37.730;2023-03-26T00:37:35;97989.59;;;7.56;100.00
62712;BME280;48772;55.586;37.730;2023-03-26T00:40:02;98008.97;;;7.66;100.00
62712;BME280;48772;55.586;37.730;2023-03-26T00:42:32;98001.69;;;7.68;100.00
62712;BME280;48772;55.586;37.730;2023-03-26T00:44:58;97985.25;;;7.65;100.00
62712;BME280;48772;55.586;37.730;2023-03-26T00:47:26;97996.25;;;7.70;100.00
62712;BME280;48772;55.586;37.730;2023-03-26T00:49:53;97985.78;;;7.68;100.00
62712;BME280;48772;55.586;37.730;2023-03-26T00:52:19;97967.81;;;7.62;100.00
62712;BME280;48772;55.586;37.730;2023-03-26T00:54:46;97981.56;;;7.75;100.00
62712;BME280;48772;55.586;37.730;2023-03-26T00:57:13;97963.59;;;7.69;100.00
62712;BME280;48772;55.586;37.730;2023-03-26T00:59:39;97961.09;;;7.68;100.00
62712;BME280;48772;55.586;37.730;2023-03-26T01:02:08;97964.13;;;7.73;100.00
62712;BME280;48772;55.586;37.730;2023-03-26T01:04:36;97949.63;;;7.67;100.00
62712;BME280;48772;55.586;37.730;2023-03-26T01:07:14;97946.59;;;7.62;100.00
62712;BME280;48772;55.586;37.730;2023-03-26T01:09:48;97950.50;;;7.58;100.00
62712;BME280;48772;55.586;37.730;2023-03-26T01:12:20;97961.53;;;7.63;100.00
62712;BME280;48772;55.586;37.730;2023-03-26T01:14:48;97930.75;;;7.43;100.00
62712;BME280;48772;55.586;37.730;2023-03-26T01:17:15;97961.44;;;7.55;100.00
62712;BME280;48772;55.586;37.730;2023-03-26T01:20:07;97942.44;;;7.50;100.00
62712;BME280;48772;55.586;37.730;2023-03-26T01:22:43;97941.34;;;7.43;100.00
62712;BME280;48772;55.586;37.730;2023-03-26T01:25:10;97962.53;;;7.53;100.00
62712;BME280;48772;55.586;37.730;2023-03-26T01:27:41;97940.41;;;7.44;100.00
62712;BME280;48772;55.586;37.730;2023-03-26T01:30:18;97958.06;;;7.53;100.00
62712;BME280;48772;55.586;37.730;2023-03-26T01:36:01;97952.22;;;7.50;100.00
62712;BME280;48772;55.586;37.730;2023-03-26T01:41:29;97959.47;;;7.48;100.00
62712;BME280;48772;55.586;37.730;2023-03-26T01:44:09;97954.31;;;7.46;100.00
62712;BME280;48772;55.586;37.730;2023-03-26T01:46:39;97930.25;;;7.30;100.00
62712;BME280;48772;55.586;37.730;2023-03-26T01:49:06;97948.50;;;7.43;100.00
62712;BME280;48772;55.586;37.730;2023-03-26T01:51:39;97951.66;;;7.46;100.00
62712;BME280;48772;55.586;37.730;2023-03-26T01:54:09;97947.22;;;7.47;100.00
62712;BME280;48772;55.586;37.730;2023-03-26T02:02:08;97949.03;;;7.46;100.00
62712;BME280;48772;55.586;37.730;2023-03-26T02:07:14;97920.03;;;7.35;100.00
62712;BME280;48772;55.586;37.730;2023-03-26T02:09:52;97941.06;;;7.46;100.00
62712;BME280;48772;55.586;37.730;2023-03-26T02:12:21;97929.38;;;7.39;100.00
62712;BME280;48772;55.586;37.730;2023-03-26T02:14:48;97943.84;;;7.45;100.00
62712;BME280;48772;55.586;37.730;2023-03-26T02:17:34;97903.88;;;7.29;100.00
62712;BME280;48772;55.586;37.730;2023-03-26T02:20:01;97925.75;;;7.40;100.00
62712;BME280;48772;55.586;37.730;2023-03-26T02:22:30;97923.91;;;7.41;100.00
62712;BME280;48772;55.586;37.730;2023-03-26T02:24:57;97916.97;;;7.40;100.00
62712;BME280;48772;55.586;37.730;2023-03-26T02:27:23;97909.72;;;7.32;100.00
62712;BME280;48772;55.586;37.730;2023-03-26T02:29:49;97904.72;;;7.29;100.00
62712;BME280;48772;55.586;37.730;2023-03-26T02:32:18;97893.69;;;7.24;100.00
62712;BME280;48772;55.586;37.730;2023-03-26T02:34:44;97914.06;;;7.33;100.00
62712;BME280;48772;55.586;37.730;2023-03-26T02:37:10;97905.41;;;7.31;100.00
62712;BME280;48772;55.586;37.730;2023-03-26T02:39:38;97915.47;;;7.28;100.00
62712;BME280;48772;55.586;37.730;2023-03-26T02:42:13;97903.78;;;7.21;100.00
62712;BME280;48772;55.586;37.730;2023-03-26T02:44:45;97886.22;;;7.10;100.00
62712;BME280;48772;55.586;37.730;2023-03-26T02:47:13;97900.41;;;7.19;100.00
62712;BME280;48772;55.586;37.730;2023-03-26T02:49:51;97885.25;;;7.11;100.00
62712;BME280;48772;55.586;37.730;2023-03-26T02:52:43;97888.69;;;7.21;100.00
62712;BME280;48772;55.586;37.730;2023-03-26T02:55:10;97880.06;;;7.19;100.00
62712;BME280;48772;55.586;37.730;2023-03-26T02:57:37;97903.88;;;7.29;100.00
62712;BME280;48772;55.586;37.730;2023-03-26T03:00:13;97877.56;;;7.18;100.00
62712;BME280;48772;55.586;37.730;2023-03-26T03:02:43;97872.41;;;7.16;100.00
62712;BME280;48772;55.586;37.730;2023-03-26T03:05:31;97906.53;;;7.29;100.00
62712;BME280;48772;55.586;37.730;2023-03-26T03:08:25;97896.78;;;7.29;100.00
62712;BME280;48772;55.586;37.730;2023-03-26T03:11:02;97898.59;;;7.29;100.00
62712;BME280;48772;55.586;37.730;2023-03-26T03:13:41;97873.50;;;7.23;100.00
62712;BME280;48772;55.586;37.730;2023-03-26T03:16:08;97883.34;;;7.31;100.00
62712;BME280;48772;55.586;37.730;2023-03-26T03:18:34;97865.69;;;7.22;100.00
62712;BME280;48772;55.586;37.730;2023-03-26T03:21:02;97870.97;;;7.22;100.00
62712;BME280;48772;55.586;37.730;2023-03-26T03:23:28;97885.47;;;7.27;100.00
62712;BME280;48772;55.586;37.730;2023-03-26T03:26:04;97887.97;;;7.29;100.00
62712;BME280;48772;55.586;37.730;2023-03-26T03:28:31;97884.09;;;7.23;100.00
62712;BME280;48772;55.586;37.730;2023-03-26T03:30:57;97878.69;;;7.15;100.00
62712;BME280;48772;55.586;37.730;2023-03-26T03:33:30;97886.53;;;7.07;100.00
62712;BME280;48772;55.586;37.730;2023-03-26T03:35:55;97878.47;;;6.89;100.00
62712;BME280;48772;55.586;37.730;2023-03-26T03:38:22;97878.31;;;6.91;100.00
62712;BME280;48772;55.586;37.730;2023-03-26T03:40:49;97867.34;;;6.86;100.00
62712;BME280;48772;55.586;37.730;2023-03-26T03:43:16;97863.28;;;6.92;100.00
62712;BME280;48772;55.586;37.730;2023-03-26T03:46:05;97863.13;;;6.93;100.00
62712;BME280;48772;55.586;37.730;2023-03-26T03:48:42;97847.94;;;6.85;100.00
62712;BME280;48772;55.586;37.730;2023-03-26T03:51:14;97863.13;;;6.93;100.00
62712;BME280;48772;55.586;37.730;2023-03-26T03:53:46;97857.00;;;6.93;100.00
62712;BME280;48772;55.586;37.730;2023-03-26T03:56:14;97861.16;;;6.95;100.00
62712;BME280;48772;55.586;37.730;2023-03-26T03:59:09;97862.84;;;6.96;100.00
62712;BME280;48772;55.586;37.730;2023-03-26T04:01:36;97859.22;;;6.97;100.00
62712;BME280;48772;55.586;37.730;2023-03-26T04:04:08;97868.84;;;6.98;100.00
62712;BME280;48772;55.586;37.730;2023-03-26T04:06:53;97836.72;;;6.74;100.00
62712;BME280;48772;55.586;37.730;2023-03-26T04:09:19;97862.03;;;6.86;100.00
62712;BME280;48772;55.586;37.730;2023-03-26T04:11:47;97858.97;;;6.81;100.00
62712;BME280;48772;55.586;37.730;2023-03-26T04:14:34;97863.31;;;6.82;100.00
62712;BME280;48772;55.586;37.730;2023-03-26T04:17:04;97859.69;;;6.83;100.00
62712;BME280;48772;55.586;37.730;2023-03-26T04:19:35;97824.03;;;6.68;100.00
62712;BME280;48772;55.586;37.730;2023-03-26T04:22:04;97843.50;;;6.86;100.00
62712;BME280;48772;55.586;37.730;2023-03-26T04:24:35;97808.53;;;6.73;100.00
62712;BME280;48772;55.586;37.730;2023-03-26T04:27:11;97824.94;;;6.86;100.00
62712;BME280;48772;55.586;37.730;2023-03-26T04:29:42;97819.50;;;6.88;100.00
62712;BME280;48772;55.586;37.730;2023-03-26T04:32:40;97834.81;;;6.93;100.00
62712;BME280;48772;55.586;37.730;2023-03-26T04:35:11;97813.50;;;6.85;100.00
62712;BME280;48772;55.586;37.730;2023-03-26T04:37:41;97818.38;;;6.90;100.00
62712;BME280;48772;55.586;37.730;2023-03-26T04:40:27;97789.81;;;6.84;100.00
62712;BME280;48772;55.586;37.730;2023-03-26T04:43:20;97815.56;;;7.01;100.00
62712;BME280;48772;55.586;37.730;2023-03-26T04:46:01;97821.69;;;7.02;100.00
62712;BME280;48772;55.586;37.730;2023-03-26T04:48:29;97808.97;;;7.05;100.00
62712;BME280;48772;55.586;37.730;2023-03-26T04:50:56;97796.03;;;7.02;100.00
62712;BME280;48772;55.586;37.730;2023-03-26T04:53:22;97812.72;;;7.12;100.00
62712;BME280;48772;55.586;37.730;2023-03-26T04:59:31;97789.94;;;7.19;100.00
62712;BME280;48772;55.586;37.730;2023-03-26T05:02:05;97776.28;;;7.14;100.00
62712;BME280;48772;55.586;37.730;2023-03-26T05:04:40;97791.47;;;7.22;100.00
62712;BME280;48772;55.586;37.730;2023-03-26T05:07:09;97769.63;;;7.10;100.00
62712;BME280;48772;55.586;37.730;2023-03-26T05:09:41;97792.47;;;7.21;100.00
62712;BME280;48772;55.586;37.730;2023-03-26T05:12:11;97761.56;;;7.02;100.00
62712;BME280;48772;55.586;37.730;2023-03-26T05:14:50;97782.44;;;7.15;100.00
62712;BME280;48772;55.586;37.730;2023-03-26T05:17:25;97783.56;;;7.12;100.00
62712;BME280;48772;55.586;37.730;2023-03-26T05:19:51;97795.25;;;7.19;100.00
62712;BME280;48772;55.586;37.730;2023-03-26T05:22:17;97788.56;;;7.15;100.00
62712;BME280;48772;55.586;37.730;2023-03-26T05:25:03;97787.44;;;7.18;100.00
62712;BME280;48772;55.586;37.730;2023-03-26T05:27:29;97784.66;;;7.19;100.00
62712;BME280;48772;55.586;37.730;2023-03-26T05:30:03;97785.03;;;7.24;100.00
62712;BME280;48772;55.586;37.730;2023-03-26T05:32:33;97789.47;;;7.33;100.00
62712;BME280;48772;55.586;37.730;2023-03-26T05:35:00;97763.44;;;7.19;100.00
62712;BME280;48772;55.586;37.730;2023-03-26T05:37:29;97786.91;;;7.41;100.00
62712;BME280;48772;55.586;37.730;2023-03-26T05:40:03;97762.84;;;7.25;100.00
62712;BME280;48772;55.586;37.730;2023-03-26T05:42:54;97756.94;;;7.31;100.00
62712;BME280;48772;55.586;37.730;2023-03-26T05:45:35;97780.31;;;7.45;100.00
62712;BME280;48772;55.586;37.730;2023-03-26T05:48:13;97765.84;;;7.40;100.00
62712;BME280;48772;55.586;37.730;2023-03-26T05:50:39;97772.94;;;7.39;100.00
62712;BME280;48772;55.586;37.730;2023-03-26T05:53:05;97755.16;;;7.32;100.00
62712;BME280;48772;55.586;37.730;2023-03-26T05:55:53;97761.38;;;7.40;100.00
62712;BME280;48772;55.586;37.730;2023-03-26T05:58:51;97757.66;;;7.33;100.00
62712;BME280;48772;55.586;37.730;2023-03-26T06:01:35;97759.81;;;7.38;100.00
62712;BME280;48772;55.586;37.730;2023-03-26T06:04:39;97759.59;;;7.31;100.00
62712;BME280;48772;55.586;37.730;2023-03-26T06:07:41;97748.00;;;7.32;100.00
62712;BME280;48772;55.586;37.730;2023-03-26T06:10:15;97743.03;;;7.29;100.00
62712;BME280;48772;55.586;37.730;2023-03-26T06:12:42;97714.38;;;7.15;100.00
62712;BME280;48772;55.586;37.730;2023-03-26T06:15:08;97747.72;;;7.35;100.00
62712;BME280;48772;55.586;37.730;2023-03-26T06:17:52;97733.78;;;7.33;100.00
62712;BME280;48772;55.586;37.730;2023-03-26T06:20:40;97735.44;;;7.34;100.00
62712;BME280;48772;55.586;37.730;2023-03-26T06:23:26;97708.59;;;7.20;100.00
62712;BME280;48772;55.586;37.730;2023-03-26T06:26:14;97719.31;;;7.28;100.00
62712;BME280;48772;55.586;37.730;2023-03-26T06:28:40;97724.84;;;7.34;100.00
62712;BME280;48772;55.586;37.730;2023-03-26T06:31:41;97710.00;;;7.24;100.00
62712;BME280;48772;55.586;37.730;2023-03-26T06:34:32;97693.53;;;7.20;100.00
62712;BME280;48772;55.586;37.730;2023-03-26T06:36:58;97723.72;;;7.37;100.00
62712;BME280;48772;55.586;37.730;2023-03-26T06:39:25;97702.56;;;7.27;100.00
62712;BME280;48772;55.586;37.730;2023-03-26T06:42:11;97711.16;;;7.39;100.00
62712;BME280;48772;55.586;37.730;2023-03-26T06:44:48;97722.41;;;7.41;100.00
62712;BME280;48772;55.586;37.730;2023-03-26T06:47:32;97705.59;;;7.32;100.00
62712;BME280;48772;55.586;37.730;2023-03-26T06:50:16;97709.59;;;7.36;100.00
62712;BME280;48772;55.586;37.730;2023-03-26T06:53:07;97709.53;;;7.28;100.00
62712;BME280;48772;55.586;37.730;2023-03-26T06:55:52;97707.66;;;7.38;100.00
62712;BME280;48772;55.586;37.730;2023-03-26T06:58:45;97630.31;;;6.90;100.00
62712;BME280;48772;55.586;37.730;2023-03-26T07:01:29;97712.25;;;7.36;100.00
62712;BME280;48772;55.586;37.730;2023-03-26T07:04:13;97706.44;;;7.33;100.00
62712;BME280;48772;55.586;37.730;2023-03-26T07:07:14;97699.00;;;7.36;100.00
62712;BME280;48772;55.586;37.730;2023-03-26T07:10:12;97669.38;;;7.06;100.00
62712;BME280;48772;55.586;37.730;2023-03-26T07:13:14;97681.72;;;7.15;100.00
62712;BME280;48772;55.586;37.730;2023-03-26T07:15:58;97680.66;;;7.25;100.00
62712;BME280;48772;55.586;37.730;2023-03-26T07:18:47;97681.38;;;7.27;100.00
62712;BME280;48772;55.586;37.730;2023-03-26T07:21:18;97662.97;;;7.26;100.00
62712;BME280;48772;55.586;37.730;2023-03-26T07:23:44;97652.56;;;7.32;100.00
62712;BME280;48772;55.586;37.730;2023-03-26T07:35:26;97649.25;;;7.30;100.00
62712;BME280;48772;55.586;37.730;2023-03-26T07:38:32;97659.88;;;7.30;100.00
62712;BME280;48772;55.586;37.730;2023-03-26T07:47:27;97640.16;;;7.33;100.00
62712;BME280;48772;55.586;37.730;2023-03-26T07:50:17;97599.72;;;7.13;100.00
62712;BME280;48772;55.586;37.730;2023-03-26T07:53:07;97602.91;;;7.34;100.00
62712;BME280;48772;55.586;37.730;2023-03-26T07:56:14;97646.06;;;7.44;100.00
62712;BME280;48772;55.586;37.730;2023-03-26T08:02:13;97637.44;;;7.07;100.00
62712;BME280;48772;55.586;37.730;2023-03-26T08:04:58;97654.84;;;7.27;100.00
62712;BME280;48772;55.586;37.730;2023-03-26T08:13:34;97636.16;;;7.29;100.00
62712;BME280;48772;55.586;37.730;2023-03-26T08:17:03;97639.47;;;7.31;100.00
62712;BME280;48772;55.586;37.730;2023-03-26T08:21:52;97631.38;;;7.32;100.00
62712;BME280;48772;55.586;37.730;2023-03-26T08:27:38;97616.59;;;7.30;100.00
62712;BME280;48772;55.586;37.730;2023-03-26T08:32:37;97616.59;;;7.30;100.00
62712;BME280;48772;55.586;37.730;2023-03-26T08:35:03;97616.09;;;7.26;100.00
62712;BME280;48772;55.586;37.730;2023-03-26T08:37:29;97613.28;;;7.28;100.00
62712;BME280;48772;55.586;37.730;2023-03-26T08:39:55;97615.53;;;7.23;100.00
62712;BME280;48772;55.586;37.730;2023-03-26T09:07:50;97592.31;;;7.34;100.00
62712;BME280;48772;55.586;37.730;2023-03-26T09:10:45;97601.59;;;7.38;100.00
62712;BME280;48772;55.586;37.730;2023-03-26T09:41:17;97549.06;;;7.59;100.00
62712;BME280;48772;55.586;37.730;2023-03-26T10:02:58;97565.09;;;7.75;100.00
62712;BME280;48772;55.586;37.730;2023-03-26T10:08:22;97559.78;;;7.75;100.00
62712;BME280;48772;55.586;37.730;2023-03-26T10:11:00;97533.81;;;7.61;100.00
62712;BME280;48772;55.586;37.730;2023-03-26T10:31:31;97537.75;;;7.75;100.00
62712;BME280;48772;55.586;37.730;2023-03-26T10:36:38;97548.44;;;7.91;100.00
62712;BME280;48772;55.586;37.730;2023-03-26T10:52:44;97538.31;;;7.94;100.00
62712;BME280;48772;55.586;37.730;2023-03-26T10:55:18;97533.56;;;7.98;100.00
62712;BME280;48772;55.586;37.730;2023-03-26T10:57:51;97529.75;;;8.00;100.00
62712;BME280;48772;55.586;37.730;2023-03-26T11:00:23;97515.91;;;7.89;100.00
62712;BME280;48772;55.586;37.730;2023-03-26T11:08:13;97528.38;;;7.88;100.00
62712;BME280;48772;55.586;37.730;2023-03-26T11:10:52;97526.69;;;7.87;100.00
62712;BME280;48772;55.586;37.730;2023-03-26T11:16:38;97522.94;;;7.98;100.00
62712;BME280;48772;55.586;37.730;2023-03-26T11:19:51;97531.78;;;8.06;100.00
62712;BME280;48772;55.586;37.730;2023-03-26T11:33:52;97534.06;;;8.01;100.00
62712;BME280;48772;55.586;37.730;2023-03-26T11:36:24;97523.81;;;8.06;100.00
62712;BME280;48772;55.586;37.730;2023-03-26T11:38:54;97509.81;;;7.96;100.00
62712;BME280;48772;55.586;37.730;2023-03-26T11:41:28;97525.13;;;8.02;100.00
62712;BME280;48772;55.586;37.730;2023-03-26T11:44:31;97534.91;;;8.02;100.00
62712;BME280;48772;55.586;37.730;2023-03-26T11:47:01;97512.31;;;7.98;100.00
62712;BME280;48772;55.586;37.730;2023-03-26T11:49:29;97518.50;;;8.06;100.00
62712;BME280;48772;55.586;37.730;2023-03-26T11:51:55;97529.44;;;8.03;100.00
62712;BME280;48772;55.586;37.730;2023-03-26T11:54:21;97518.94;;;7.94;100.00
62712;BME280;48772;55.586;37.730;2023-03-26T11:57:07;97514.50;;;8.02;100.00
62712;BME280;48772;55.586;37.730;2023-03-26T11:59:39;97514.66;;;8.01;100.00
62712;BME280;48772;55.586;37.730;2023-03-26T12:02:16;97522.66;;;8.09;100.00
62712;BME280;48772;55.586;37.730;2023-03-26T12:04:50;97525.63;;;8.06;100.00
62712;BME280;48772;55.586;37.730;2023-03-26T12:10:23;97504.22;;;7.99;100.00
62712;BME280;48772;55.586;37.730;2023-03-26T12:12:52;97515.00;;;8.06;100.00
62712;BME280;48772;55.586;37.730;2023-03-26T12:15:20;97500.06;;;7.97;100.00
62712;BME280;48772;55.586;37.730;2023-03-26T12:17:48;97515.78;;;7.98;100.00
62712;BME280;48772;55.586;37.730;2023-03-26T12:22:56;97517.09;;;7.94;100.00
62712;BME280;48772;55.586;37.730;2023-03-26T12:25:37;97504.72;;;8.03;100.00
62712;BME280;48772;55.586;37.730;2023-03-26T12:30:41;97477.97;;;7.88;100.00
62712;BME280;48772;55.586;37.730;2023-03-26T12:33:36;97504.22;;;7.99;100.00
62712;BME280;48772;55.586;37.730;2023-03-26T12:36:22;97495.25;;;8.00;100.00
62712;BME280;48772;55.586;37.730;2023-03-26T12:38:51;97498.91;;;7.99;100.00
62712;BME280;48772;55.586;37.730;2023-03-26T12:41:19;97476.78;;;7.83;100.00
62712;BME280;48772;55.586;37.730;2023-03-26T12:43:48;97493.06;;;7.96;100.00
62712;BME280;48772;55.586;37.730;2023-03-26T12:46:34;97491.91;;;7.98;100.00
62712;BME280;48772;55.586;37.730;2023-03-26T12:49:03;97474.50;;;7.96;100.00
62712;BME280;48772;55.586;37.730;2023-03-26T12:57:23;97481.63;;;7.95;100.00
62712;BME280;48772;55.586;37.730;2023-03-26T13:05:07;97489.34;;;7.81;100.00
62712;BME280;48772;55.586;37.730;2023-03-26T13:10:43;97492.19;;;7.87;100.00
62712;BME280;48772;55.586;37.730;2023-03-26T13:16:12;97464.59;;;7.72;100.00
62712;BME280;48772;55.586;37.730;2023-03-26T13:19:13;97462.09;;;7.71;100.00
62712;BME280;48772;55.586;37.730;2023-03-26T13:22:04;97473.25;;;7.74;100.00
62712;BME280;48772;55.586;37.730;2023-03-26T13:24:58;97475.94;;;7.82;100.00
62712;BME280;48772;55.586;37.730;2023-03-26T13:30:31;97488.13;;;7.67;100.00
62712;BME280;48772;55.586;37.730;2023-03-26T13:36:28;97502.56;;;7.73;100.00
62712;BME280;48772;55.586;37.730;2023-03-26T13:39:25;97495.09;;;7.68;100.00
62712;BME280;48772;55.586;37.730;2023-03-26T13:44:31;97449.88;;;7.44;100.00
62712;BME280;48772;55.586;37.730;2023-03-26T13:47:24;97505.34;;;7.63;100.00
62712;BME280;48772;55.586;37.730;2023-03-26T13:49:58;97479.91;;;7.53;100.00
62712;BME280;48772;55.586;37.730;2023-03-26T13:52:35;97466.50;;;7.54;100.00
62712;BME280;48772;55.586;37.730;2023-03-26T14:00:24;97479.41;;;7.49;100.00
62712;BME280;48772;55.586;37.730;2023-03-26T14:03:08;97483.75;;;7.58;100.00
62712;BME280;48772;55.586;37.730;2023-03-26T14:05:44;97484.41;;;7.52;100.00
62712;BME280;48772;55.586;37.730;2023-03-26T14:08:28;97469.94;;;7.47;100.00
62712;BME280;48772;55.586;37.730;2023-03-26T14:11:14;97487.34;;;7.49;100.00
62712;BME280;48772;55.586;37.730;2023-03-26T14:14:11;97479.72;;;7.46;100.00
62712;BME280;48772;55.586;37.730;2023-03-26T14:16:45;97465.53;;;7.30;100.00
62712;BME280;48772;55.586;37.730;2023-03-26T14:27:36;97493.75;;;7.39;100.00
62712;BME280;48772;55.586;37.730;2023-03-26T14:30:30;97490.13;;;7.40;100.00
62712;BME280;48772;55.586;37.730;2023-03-26T14:33:11;97479.81;;;7.37;100.00
62712;BME280;48772;55.586;37.730;2023-03-26T14:41:21;97462.38;;;7.26;100.00
62712;BME280;48772;55.586;37.730;2023-03-26T14:44:04;97493.22;;;7.35;100.00
62712;BME280;48772;55.586;37.730;2023-03-26T14:52:29;97480.97;;;7.34;100.00
62712;BME280;48772;55.586;37.730;2023-03-26T14:55:05;97465.16;;;7.25;100.00
62712;BME280;48772;55.586;37.730;2023-03-26T15:12:12;97479.63;;;7.30;100.00
62712;BME280;48772;55.586;37.730;2023-03-26T15:17:36;97484.22;;;7.28;100.00
62712;BME280;48772;55.586;37.730;2023-03-26T15:45:30;97474.72;;;7.18;100.00
62712;BME280;48772;55.586;37.730;2023-03-26T15:48:05;97468.56;;;7.17;100.00
62712;BME280;48772;55.586;37.730;2023-03-26T15:53:34;97483.13;;;7.13;100.00
62712;BME280;48772;55.586;37.730;2023-03-26T15:56:12;97475.88;;;7.15;100.00
62712;BME280;48772;55.586;37.730;2023-03-26T15:58:53;97477.53;;;7.16;100.00
62712;BME280;48772;55.586;37.730;2023-03-26T16:01:41;97480.31;;;7.15;100.00
62712;BME280;48772;55.586;37.730;2023-03-26T16:04:27;97483.13;;;7.13;100.00
62712;BME280;48772;55.586;37.730;2023-03-26T16:10:19;97470.44;;;6.99;100.00
62712;BME280;48772;55.586;37.730;2023-03-26T16:13:16;97468.47;;;7.01;100.00
62712;BME280;48772;55.586;37.730;2023-03-26T16:15:42;97472.31;;;7.07;100.00
62712;BME280;48772;55.586;37.730;2023-03-26T16:20:54;97460.16;;;6.96;100.00
62712;BME280;48772;55.586;37.730;2023-03-26T16:23:34;97479.81;;;7.11;100.00
62712;BME280;48772;55.586;37.730;2023-03-26T16:26:22;97477.97;;;7.12;100.00
62712;BME280;48772;55.586;37.730;2023-03-26T16:31:25;97480.94;;;7.09;100.00
62712;BME280;48772;55.586;37.730;2023-03-26T16:36:41;97480.13;;;7.08;100.00
62712;BME280;48772;55.586;37.730;2023-03-26T16:44:12;97489.41;;;7.12;100.00
62712;BME280;48772;55.586;37.730;2023-03-26T16:46:43;97484.28;;;7.11;100.00
62712;BME280;48772;55.586;37.730;2023-03-26T16:49:19;97499.47;;;7.09;100.00
62712;BME280;48772;55.586;37.730;2023-03-26T16:57:56;97450.28;;;6.80;100.00
62712;BME280;48772;55.586;37.730;2023-03-26T17:03:37;97503.28;;;7.06;100.00
62712;BME280;48772;55.586;37.730;2023-03-26T17:06:32;97492.53;;;7.08;100.00
62712;BME280;48772;55.586;37.730;2023-03-26T17:09:12;97504.41;;;7.04;100.00
62712;BME280;48772;55.586;37.730;2023-03-26T17:14:34;97501.91;;;7.02;100.00
62712;BME280;48772;55.586;37.730;2023-03-26T17:19:55;97452.22;;;6.78;100.00
62712;BME280;48772;55.586;37.730;2023-03-26T17:22:44;97496.25;;;6.97;100.00
62712;BME280;48772;55.586;37.730;2023-03-26T17:25:36;97492.78;;;6.97;100.00
62712;BME280;48772;55.586;37.730;2023-03-26T17:32:04;97502.38;;;6.97;100.00
62712;BME280;48772;55.586;37.730;2023-03-26T17:37:04;97498.59;;;7.00;100.00
62712;BME280;48772;55.586;37.730;2023-03-26T17:42:30;97491.47;;;7.01;100.00
62712;BME280;48772;55.586;37.730;2023-03-26T17:45:18;97482.88;;;6.99;100.00
62712;BME280;48772;55.586;37.730;2023-03-26T17:50:20;97496.91;;;6.99;100.00
62712;BME280;48772;55.586;37.730;2023-03-26T17:53:05;97467.88;;;6.89;100.00
62712;BME280;48772;55.586;37.730;2023-03-26T17:55:35;97477.19;;;6.93;100.00
62712;BME280;48772;55.586;37.730;2023-03-26T17:58:04;97468.16;;;6.86;100.00
62712;BME280;48772;55.586;37.730;2023-03-26T18:00:34;97482.88;;;6.99;100.00
62712;BME280;48772;55.586;37.730;2023-03-26T18:03:17;97489.66;;;7.01;100.00
62712;BME280;48772;55.586;37.730;2023-03-26T18:05:45;97476.06;;;6.96;100.00
62712;BME280;48772;55.586;37.730;2023-03-26T18:08:40;97480.22;;;6.99;100.00
62712;BME280;48772;55.586;37.730;2023-03-26T18:14:29;97477.72;;;6.97;100.00
62712;BME280;48772;55.586;37.730;2023-03-26T18:17:01;97477.50;;;6.91;100.00
62712;BME280;48772;55.586;37.730;2023-03-26T18:19:28;97484.97;;;6.95;100.00
62712;BME280;48772;55.586;37.730;2023-03-26T18:21:58;97471.50;;;6.88;100.00
62712;BME280;48772;55.586;37.730;2023-03-26T18:24:35;97463.06;;;6.85;100.00
62712;BME280;48772;55.586;37.730;2023-03-26T18:27:06;97451.63;;;6.84;100.00
62712;BME280;48772;55.586;37.730;2023-03-26T18:29:36;97452.22;;;6.78;100.00
62712;BME280;48772;55.586;37.730;2023-03-26T18:34:37;97477.81;;;6.88;100.00
62712;BME280;48772;55.586;37.730;2023-03-26T18:37:18;97470.22;;;6.93;100.00
62712;BME280;48772;55.586;37.730;2023-03-26T18:40:09;97462.72;;;6.88;100.00
62712;BME280;48772;55.586;37.730;2023-03-26T18:42:39;97465.38;;;6.88;100.00
62712;BME280;48772;55.586;37.730;2023-03-26T18:45:11;97469.84;;;6.88;100.00
62712;BME280;48772;55.586;37.730;2023-03-26T18:47:41;97478.94;;;6.85;100.00
62712;BME280;48772;55.586;37.730;2023-03-26T18:50:13;97468.16;;;6.86;100.00
62712;BME280;48772;55.586;37.730;2023-03-26T18:52:41;97442.41;;;6.71;100.00
62712;BME280;48772;55.586;37.730;2023-03-26T18:55:10;97459.88;;;6.81;100.00
62712;BME280;48772;55.586;37.730;2023-03-26T18:57:38;97450.88;;;6.74;100.00
62712;BME280;48772;55.586;37.730;2023-03-26T19:00:20;97475.47;;;6.84;100.00
62712;BME280;48772;55.586;37.730;2023-03-26T19:02:50;97453.38;;;6.76;100.00
62712;BME280;48772;55.586;37.730;2023-03-26T19:05:19;97472.50;;;6.88;100.00
62712;BME280;48772;55.586;37.730;2023-03-26T19:07:46;97466.16;;;6.80;100.00